Solsberry, Indiana
Current Conditions -  °F | °C
As of 1:32 PM on Thursday 29 Jan 2015 (Local Time) from KBMG Reporting Station
Light Rain Light Rain  
Wind Chill: 27°   Ceiling: 900
Heat Index: 36°   Visibility: 2.5mi
Dew Point: 33°   Wind: 15mph
Humidity: 89%   Direction: 270°W
Pressure: 29.97"   Gusts: 21mph
Location:  39.08°N, 86.76°W
Report Text: KBMG 291832Z 27013G18KT 2 1/2SM -RA BR OVC009 02/01 A2997 RMK AO2 PK WND 32028/1812 RAB1757E07B28 CIG 006V012 P0000 T00220006
Loading
Personal Weather Stations






























Interactive Weather Map New forecast layout! Learn more

10-Day Weather Forecast

Advertisements
Track Severe Weather on mobile